KISM/ISM METAR and TAF weather

Enter ICAO airport designator
Station Type Date Time Source
KISM METAR 2018/12/10 08:31 UTC NOAA

KISM 100831Z AUTO 30011KT 10SM -RA BKN010 OVC015 14/13 A2998 RMK AO2 RAB06 PNO $


Station Type Date Time Source
KISM Decoded METAR 2018/12/10 08:31 UTC NOAA

Orlando, Kissimmee Municipal Airport, FL, United States (KISM) 28-17-23N 081-26-14W
Dec 10, 2018 - 03:31 AM EST / 2018.12.10 0831 UTC
Wind: from the WNW (300 degrees) at 13 MPH (11 KT):0
Visibility: 10 mile(s):0
Sky conditions: overcast
Weather: light rain
Temperature: 57 F (14 C)
Dew Point: 55 F (13 C)
Relative Humidity: 93%
Pressure (altimeter): 29.98 in. Hg (1015 hPa)
ob: KISM 100831Z AUTO 30011KT 10SM -RA BKN010 OVC015 14/13 A2998 RMK AO2 RAB06 PNO
cycle: 8

Station Type Date Time Source
KISM TAF 2018/12/10 07:27 UTC NOAA

TAF
AMD KISM 100724Z 1007/1106 31012KT P6SM SCT015 SCT025
TEMPO 1007/1011 BKN012 OVC025
FM101400 30010KT P6SM SCT025 BKN035
FM110000 31007KT P6SM FEW025


Example: see airport list